Time;durP1;ratioP1;P1;durP2;ratioP2;P2;SDS_P1;SDS_P2;PMS_P1;PMS_P2;Temp;Humidity;BMP_temperature;BMP_pressure;BME280_temperature;BME280_humidity;BME280_pressure;Samples;Min_cycle;Max_cycle;Signal;HPM_P1;HPM_P2
2021/07/31 00:00:27;;;;;;;12.02;8.02;;;;;;;33.22;32.79;98714.96;361569;109;1962011;-70
2021/07/31 00:01:51;;;;;;;11.12;7.37;;;;;;;33.13;32.93;98711.66;357665;112;1963017;-71
2021/07/31 00:03:03;;;;;;;14.14;8.53;;;;;;;33.33;32.98;98712.28;387248;104;2072919;-70
2021/07/31 00:04:09;;;;;;;11.09;7.63;;;;;;;33.12;33.08;98714.83;378510;107;1962044;-69
2021/07/31 00:05:14;;;;;;;12.11;7.97;;;;;;;33.25;32.90;98711.39;378563;105;1961896;-70
2021/07/31 00:06:27;;;;;;;13.84;8.73;;;;;;;33.30;33.21;98720.66;395078;104;2071974;-70
2021/07/31 00:07:32;;;;;;;13.14;8.22;;;;;;;33.17;33.19;98711.70;376848;106;1961857;-70
2021/07/31 00:08:45;;;;;;;12.31;8.46;;;;;;;33.14;33.25;98716.06;356099;104;2654376;-70
2021/07/31 00:09:50;;;;;;;13.24;7.98;;;;;;;33.01;33.36;98715.49;349382;107;1961991;-70
2021/07/31 00:11:15;;;;;;;12.75;8.23;;;;;;;32.96;33.41;98718.59;374930;107;1961954;-70
2021/07/31 00:12:27;;;;;;;11.70;7.46;;;;;;;33.02;33.65;98717.09;392846;104;1961937;-69
2021/07/31 00:13:32;;;;;;;10.79;6.96;;;;;;;32.91;33.56;98713.32;353007;107;1969040;-68
2021/07/31 00:14:44;;;;;;;11.18;8.00;;;;;;;33.06;33.66;98711.56;397718;104;2072932;-70
2021/07/31 00:15:49;;;;;;;11.74;8.06;;;;;;;32.92;33.63;98717.75;379569;105;1962058;-70
2021/07/31 00:17:05;;;;;;;11.23;8.23;;;;;;;33.01;33.75;98718.29;398051;104;1987040;-70
2021/07/31 00:18:10;;;;;;;11.98;8.27;;;;;;;32.91;33.71;98721.71;371770;106;1962024;-70
2021/07/31 00:19:35;;;;;;;13.35;8.91;;;;;;;32.88;33.66;98718.88;338900;107;2024898;-71
2021/07/31 00:20:49;;;;;;;13.35;8.47;;;;;;;33.09;33.50;98712.80;377216;106;1986947;-70
2021/07/31 00:21:54;;;;;;;10.47;7.51;;;;;;;32.85;33.69;98718.44;350119;109;1962017;-69
2021/07/31 00:23:10;;;;;;;13.37;7.91;;;;;;;32.89;33.85;98710.09;393802;104;1987078;-70
2021/07/31 00:24:15;;;;;;;14.64;8.44;;;;;;;32.78;33.77;98709.94;357143;107;1961938;-70
2021/07/31 00:25:40;;;;;;;11.92;8.10;;;;;;;32.81;33.80;98719.56;370769;107;1964946;-71
2021/07/31 00:26:52;;;;;;;13.03;8.46;;;;;;;32.97;33.70;98714.63;399716;103;1964976;-69
2021/07/31 00:27:57;;;;;;;13.09;8.33;;;;;;;32.76;33.80;98717.09;373046;107;1965046;-68
2021/07/31 00:29:09;;;;;;;12.84;8.19;;;;;;;32.85;33.93;98717.64;384546;106;2071999;-70
2021/07/31 00:30:15;;;;;;;12.31;8.11;;;;;;;32.68;34.07;98721.78;368780;110;1962995;-70
2021/07/31 00:31:39;;;;;;;11.77;7.04;;;;;;;32.66;34.02;98709.38;362538;111;1961798;-70
2021/07/31 00:32:51;;;;;;;10.68;7.63;;;;;;;32.76;34.12;98717.92;397816;104;1986029;-68
2021/07/31 00:33:58;;;;;;;11.75;7.80;;;;;;;32.64;34.06;98720.94;377805;105;1962020;-69
2021/07/31 00:35:11;;;;;;;12.24;8.57;;;;;;;32.79;34.31;98719.16;388670;106;1986191;-69
2021/07/31 00:36:17;;;;;;;14.17;8.28;;;;;;;32.66;34.14;98717.77;366380;107;1962039;-67
2021/07/31 00:37:40;;;;;;;12.51;7.94;;;;;;;32.66;34.15;98712.98;344993;110;1962941;-70
2021/07/31 00:38:52;;;;;;;11.80;7.98;;;;;;;32.78;34.20;98714.73;396432;104;1983037;-69
2021/07/31 00:39:57;;;;;;;11.87;8.10;;;;;;;32.66;34.20;98707.39;375971;107;1962033;-68
2021/07/31 00:41:28;;;;;;;11.32;8.43;;;;;;;32.83;34.27;98711.61;412806;99;1990027;-69
2021/07/31 00:42:39;;;;;;;11.79;7.61;;;;;;;32.75;34.04;98716.30;391694;100;1962037;-70
2021/07/31 00:43:51;;;;;;;15.33;8.17;;;;;;;32.81;34.31;98712.01;378821;104;2853994;-69
2021/07/31 00:44:57;;;;;;;12.16;8.64;;;;;;;32.73;34.11;98715.06;334940;107;2892986;-70
2021/07/31 00:46:21;;;;;;;14.36;7.89;;;;;;;32.73;34.08;98713.06;378768;106;1962048;-70
2021/07/31 00:47:28;;;;;;;15.78;9.33;;;;;;;32.78;34.03;98714.73;329038;107;2874105;-70
2021/07/31 00:48:41;;;;;;;12.06;7.95;;;;;;;32.84;34.10;98713.22;391651;104;1985954;-69
2021/07/31 00:49:48;;;;;;;13.15;8.29;;;;;;;32.70;34.09;98710.23;376851;106;1961886;-71
2021/07/31 00:50:55;;;;;;;12.66;8.66;;;;;;;32.74;34.02;98719.48;320272;107;2477989;-70
2021/07/31 00:52:08;;;;;;;11.17;7.68;;;;;;;32.73;34.35;98713.06;396097;104;1986029;-70
2021/07/31 00:53:14;;;;;;;13.50;9.02;;;;;;;32.58;34.27;98706.48;372428;107;1961964;-68
2021/07/31 00:54:21;;;;;;;12.90;8.63;;;;;;;32.61;34.26;98710.51;328815;109;2669093;-70
2021/07/31 00:55:35;;;;;;;13.71;8.11;;;;;;;32.61;34.44;98702.12;390808;106;1986842;-68
2021/07/31 00:56:43;;;;;;;11.47;7.51;;;;;;;32.53;34.41;98706.00;309884;109;2454039;-68
2021/07/31 00:57:57;;;;;;;12.01;7.96;;;;;;;32.78;34.18;98715.53;407232;101;1987079;-69
2021/07/31 00:59:04;;;;;;;13.02;8.19;;;;;;;32.69;34.14;98711.42;379344;105;1962981;-69
2021/07/31 01:00:28;;;;;;;13.45;8.73;;;;;;;32.65;34.15;98711.35;383886;105;1961963;-70
2021/07/31 01:01:34;;;;;;;10.63;7.32;;;;;;;32.63;34.26;98708.15;385321;105;1962034;-70
2021/07/31 01:02:47;;;;;;;11.41;8.09;;;;;;;32.69;34.29;98706.63;381955;108;1985870;-70
2021/07/31 01:03:53;;;;;;;12.48;8.08;;;;;;;32.50;34.32;98709.55;316584;110;2890010;-70
2021/07/31 01:05:09;;;;;;;13.95;8.78;;;;;;;32.58;34.35;98703.68;391589;106;1961865;-68
2021/07/31 01:06:15;;;;;;;14.07;9.54;;;;;;;32.45;34.35;98705.05;371960;107;1970073;-70
2021/07/31 01:07:40;;;;;;;12.06;7.93;;;;;;;32.39;34.42;98704.56;362114;107;2856055;-69
2021/07/31 01:08:52;;;;;;;15.34;8.33;;;;;;;32.49;34.47;98708.72;387252;106;1986018;-70
2021/07/31 01:09:59;;;;;;;14.93;9.11;;;;;;;32.39;34.47;98714.91;368138;109;1962983;-69
2021/07/31 01:11:04;;;;;;;10.39;7.88;;;;;;;32.41;34.36;98710.56;366541;109;1961997;-68
2021/07/31 01:12:18;;;;;;;13.36;9.36;;;;;;;32.49;34.51;98711.52;398931;104;1986899;-67
2021/07/31 01:13:26;;;;;;;10.68;7.68;;;;;;;32.37;34.48;98709.72;369878;109;1961965;-69
2021/07/31 01:14:38;;;;;;;13.02;8.71;;;;;;;32.46;34.71;98712.23;390409;106;1986894;-69
2021/07/31 01:16:07;;;;;;;11.56;7.32;;;;;;;32.33;34.66;98713.63;369971;109;1961989;-69
2021/07/31 01:17:30;;;;;;;14.27;8.64;;;;;;;32.36;34.64;98704.48;369764;109;1962019;-68
2021/07/31 01:18:42;;;;;;;13.44;8.09;;;;;;;32.41;34.65;98713.36;394024;104;1986986;-68
2021/07/31 01:19:52;;;;;;;13.83;8.59;;;;;;;32.30;34.63;98709.59;371430;109;1962023;-67
2021/07/31 01:21:04;;;;;;;10.82;7.84;;;;;;;32.37;34.86;98706.92;405264;101;1986084;-68
2021/07/31 01:22:10;;;;;;;13.47;9.36;;;;;;;32.24;34.80;98710.30;382068;105;1962076;-67
2021/07/31 01:23:36;;;;;;;13.68;8.17;;;;;;;32.27;34.78;98707.55;375354;105;1961989;-69
2021/07/31 01:24:49;;;;;;;12.13;7.97;;;;;;;32.43;34.69;98707.41;397771;104;1986983;-69
2021/07/31 01:25:57;;;;;;;10.66;7.78;;;;;;;32.26;34.70;98711.54;374072;107;1962026;-71
2021/07/31 01:27:03;;;;;;;12.25;8.59;;;;;;;32.22;34.71;98707.87;378267;107;1963067;-69
2021/07/31 01:28:36;;;;;;;18.66;8.25;;;;;;;32.35;34.94;98705.69;352706;110;2870121;-69
2021/07/31 01:29:41;;;;;;;12.96;8.67;;;;;;;32.24;34.81;98710.30;309461;111;2140996;-67
2021/07/31 01:30:54;;;;;;;12.92;8.75;;;;;;;32.33;34.85;98703.25;397688;104;1986967;-68
2021/07/31 01:32:00;;;;;;;13.11;8.60;;;;;;;32.16;34.81;98701.80;378748;107;1961962;-69
2021/07/31 01:33:12;;;;;;;13.59;8.44;;;;;;;32.28;34.86;98700.77;368213;101;2720025;-70
2021/07/31 01:34:19;;;;;;;14.76;8.25;;;;;;;32.24;34.82;98702.72;380362;105;1961999;-69
2021/07/31 01:35:43;;;;;;;11.56;8.75;;;;;;;32.26;34.67;98700.36;347478;103;2664053;-69
2021/07/31 01:36:55;;;;;;;12.83;7.66;;;;;;;32.33;34.82;98706.05;395090;104;1961059;-69
2021/07/31 01:38:01;;;;;;;12.48;8.43;;;;;;;32.22;34.66;98702.28;367215;110;1968961;-69
2021/07/31 01:39:13;;;;;;;13.46;8.93;;;;;;;32.36;34.69;98707.28;390922;104;2980770;-68
2021/07/31 01:40:19;;;;;;;12.97;8.32;;;;;;;32.23;34.67;98701.09;370410;107;2946042;-69
2021/07/31 01:41:25;;;;;;;12.36;8.49;;;;;;;32.24;34.58;98705.52;343864;107;2619948;-68
2021/07/31 01:42:31;;;;;;;13.75;8.35;;;;;;;32.23;34.63;98701.09;359205;107;1961917;-69
2021/07/31 01:43:36;;;;;;;11.28;7.79;;;;;;;32.21;34.61;98702.67;364323;108;1962021;-69
2021/07/31 01:44:48;;;;;;;15.87;7.98;;;;;;;32.34;34.70;98699.30;393622;103;1985957;-69
2021/07/31 01:45:55;;;;;;;12.65;7.93;;;;;;;32.26;34.66;98700.36;375255;107;1960858;-69
2021/07/31 01:47:02;;;;;;;11.86;7.98;;;;;;;32.23;34.68;98708.67;339924;107;2059053;-70
2021/07/31 01:48:14;;;;;;;11.88;8.33;;;;;;;32.36;34.59;98699.70;382181;106;2071982;-70
2021/07/31 01:49:20;;;;;;;11.31;8.28;;;;;;;32.24;34.63;98699.13;361858;109;1961997;-71
2021/07/31 01:50:32;;;;;;;12.67;8.46;;;;;;;32.39;34.53;98700.94;388577;106;1986008;-70
2021/07/31 01:51:38;;;;;;;12.74;7.72;;;;;;;32.41;34.31;98704.17;325949;109;2808979;-71
2021/07/31 01:53:02;;;;;;;11.42;7.89;;;;;;;32.35;34.29;98703.69;364186;110;1962010;-69
2021/07/31 01:54:15;;;;;;;14.74;8.33;;;;;;;32.43;34.32;98701.81;396570;101;2071899;-70
2021/07/31 01:55:20;;;;;;;12.50;9.63;;;;;;;32.31;34.31;98702.84;382477;103;1961839;-69
2021/07/31 01:56:29;;;;;;;12.86;7.57;;;;;;;32.30;34.34;98703.20;384574;105;1962964;-69
2021/07/31 01:57:35;;;;;;;12.15;8.19;;;;;;;32.33;34.22;98710.84;349779;105;2603997;-69
2021/07/31 01:58:47;;;;;;;12.05;8.46;;;;;;;32.32;34.43;98710.03;397851;104;2073036;-70
2021/07/31 01:59:53;;;;;;;13.19;8.13;;;;;;;32.36;34.23;98705.29;379470;105;1964029;-70
2021/07/31 02:01:00;;;;;;;12.26;8.62;;;;;;;32.15;34.39;98710.53;379526;105;1961995;-68
2021/07/31 02:02:05;;;;;;;11.99;8.00;;;;;;;32.15;34.44;98707.74;380030;105;1962056;-69
2021/07/31 02:03:12;;;;;;;12.34;7.74;;;;;;;32.15;34.42;98711.37;315034;106;2257879;-69
2021/07/31 02:04:26;;;;;;;12.72;8.80;;;;;;;32.21;34.49;98705.47;390506;104;2071975;-70
2021/07/31 02:05:50;;;;;;;13.16;9.47;;;;;;;32.12;34.41;98703.70;378214;107;1970006;-69
2021/07/31 02:07:03;;;;;;;11.01;8.16;;;;;;;32.30;34.37;98708.80;355468;104;2686972;-70
2021/07/31 02:08:10;;;;;;;14.82;8.98;;;;;;;32.16;34.38;98700.98;374238;107;1964902;-69
2021/07/31 02:09:35;;;;;;;12.86;7.92;;;;;;;32.13;34.39;98708.13;364568;109;1963081;-70
2021/07/31 02:10:49;;;;;;;15.53;9.19;;;;;;;32.30;34.40;98708.80;383989;106;2073049;-69
2021/07/31 02:11:55;;;;;;;11.62;9.19;;;;;;;32.17;34.38;98708.19;336643;109;2014959;-71
2021/07/31 02:13:00;;;;;;;12.43;8.11;;;;;;;32.16;34.38;98712.97;345239;109;1961944;-70
2021/07/31 02:14:12;;;;;;;12.41;8.75;;;;;;;32.32;34.45;98712.03;395854;103;1986014;-69
2021/07/31 02:15:20;;;;;;;15.78;9.03;;;;;;;32.14;34.35;98714.52;378946;105;1961990;-70
2021/07/31 02:16:27;;;;;;;14.34;8.62;;;;;;;32.15;34.31;98716.12;379061;105;1964026;-69
2021/07/31 02:17:40;;;;;;;13.03;8.54;;;;;;;32.29;34.38;98707.99;400646;101;2073000;-69
2021/07/31 02:18:47;;;;;;;12.91;8.41;;;;;;;32.13;34.46;98710.92;336730;103;2142025;-69
2021/07/31 02:19:53;;;;;;;12.87;8.53;;;;;;;32.15;34.46;98710.53;385312;103;1961933;-70
2021/07/31 02:21:10;;;;;;;10.91;7.70;;;;;;;32.22;34.49;98709.86;354008;104;2693938;-69
2021/07/31 02:22:34;;;;;;;13.76;9.44;;;;;;;32.17;34.51;98713.77;373839;105;1961992;-70
2021/07/31 02:23:46;;;;;;;12.23;7.97;;;;;;;32.23;34.46;98719.84;396842;104;1986131;-70
2021/07/31 02:25:06;;;;;;;12.49;8.39;;;;;;;32.10;34.47;98720.06;357214;111;1964071;-70
2021/07/31 02:26:38;;;;;;;13.37;8.91;;;;;;;32.07;34.85;98717.19;394739;103;1987018;-69
2021/07/31 02:27:45;;;;;;;16.78;9.56;;;;;;;31.99;34.74;98719.05;365940;110;1964031;-68
2021/07/31 02:29:09;;;;;;;12.26;7.69;;;;;;;31.97;34.78;98710.25;360223;111;1964907;-68
2021/07/31 02:30:17;;;;;;;12.08;8.22;;;;;;;31.92;34.84;98711.36;362487;109;1962088;-69
2021/07/31 02:31:30;;;;;;;15.15;7.75;;;;;;;32.03;35.12;98713.54;387778;106;1964034;-70
2021/07/31 02:32:36;;;;;;;13.13;8.73;;;;;;;31.92;34.90;98718.91;335739;108;2610047;-69
2021/07/31 02:33:48;;;;;;;12.71;8.31;;;;;;;32.07;34.90;98715.19;396319;104;2071852;-70
2021/07/31 02:34:55;;;;;;;11.25;8.17;;;;;;;31.96;34.89;98726.19;380489;105;1963019;-69
2021/07/31 02:36:08;;;;;;;11.84;8.61;;;;;;;32.00;34.98;98720.68;401887;104;1966071;-69
2021/07/31 02:37:16;;;;;;;11.30;7.88;;;;;;;31.99;34.84;98719.05;378442;105;1970013;-69
2021/07/31 02:38:40;;;;;;;14.68;8.67;;;;;;;31.96;34.89;98723.39;366565;107;1962986;-69
2021/07/31 02:39:53;;;;;;;12.31;7.81;;;;;;;32.07;34.88;98731.95;356822;104;2872050;-69
2021/07/31 02:40:59;;;;;;;12.74;8.18;;;;;;;32.03;34.79;98735.89;370075;107;1961909;-69
2021/07/31 02:42:11;;;;;;;15.49;8.89;;;;;;;32.19;34.74;98725.39;394177;104;1986800;-70
2021/07/31 02:43:18;;;;;;;13.16;8.49;;;;;;;32.20;34.58;98726.98;369124;107;1961978;-67
2021/07/31 02:44:30;;;;;;;13.17;8.91;;;;;;;32.28;34.61;98728.72;399348;104;1985997;-68
2021/07/31 02:45:42;;;;;;;13.03;8.81;;;;;;;32.28;34.64;98730.71;397390;103;1987052;-69
2021/07/31 02:46:48;;;;;;;14.53;9.12;;;;;;;32.13;34.56;98730.48;375880;107;1961929;-70
2021/07/31 02:48:02;;;;;;;12.91;9.45;;;;;;;32.06;34.81;98729.55;367431;104;2524027;-68
2021/07/31 02:49:08;;;;;;;12.26;7.89;;;;;;;31.91;34.88;98726.45;374514;107;1964007;-69
2021/07/31 02:50:20;;;;;;;12.43;8.53;;;;;;;32.07;35.03;98725.56;390249;106;1987060;-69
2021/07/31 02:51:27;;;;;;;13.66;8.36;;;;;;;31.92;34.87;98724.50;368954;109;1963985;-70
2021/07/31 02:52:56;;;;;;;12.45;8.83;;;;;;;31.88;34.97;98732.79;367024;108;1961997;-69
2021/07/31 02:54:08;;;;;;;13.54;9.30;;;;;;;31.97;35.00;98727.02;393777;104;2072098;-69
2021/07/31 02:55:13;;;;;;;17.13;8.59;;;;;;;31.89;34.99;98730.83;376457;107;1963995;-69
2021/07/31 02:56:19;;;;;;;12.01;8.88;;;;;;;31.85;35.01;98725.16;365447;109;1962020;-70
2021/07/31 02:57:24;;;;;;;12.33;9.11;;;;;;;31.84;35.02;98729.14;367828;107;1962011;-71
2021/07/31 02:58:36;;;;;;;13.42;8.24;;;;;;;31.98;34.95;98723.83;380584;109;1986966;-69
2021/07/31 02:59:42;;;;;;;13.03;8.31;;;;;;;31.90;35.00;98732.44;353408;112;1962035;-69
2021/07/31 03:00:54;;;;;;;14.59;7.98;;;;;;;32.06;35.00;98732.34;363402;103;2533948;-69
2021/07/31 03:02:00;;;;;;;13.06;8.04;;;;;;;31.87;35.06;98722.02;379030;107;1962020;-69
2021/07/31 03:03:26;;;;;;;12.62;8.44;;;;;;;31.97;34.92;98732.60;369848;109;1966061;-70
2021/07/31 03:04:31;;;;;;;15.57;9.02;;;;;;;32.02;34.79;98728.67;368071;107;1962061;-70
2021/07/31 03:05:40;;;;;;;13.69;8.05;;;;;;;32.02;34.79;98731.46;365759;108;1963042;-69
2021/07/31 03:06:52;;;;;;;13.34;8.39;;;;;;;32.13;34.78;98736.08;404605;101;2075772;-69
2021/07/31 03:07:58;;;;;;;11.44;7.47;;;;;;;32.00;34.77;98736.64;383165;103;1961962;-68
2021/07/31 03:09:03;;;;;;;13.39;8.66;;;;;;;31.98;34.83;98740.59;371309;107;1961896;-70
2021/07/31 03:10:12;;;;;;;12.31;8.66;;;;;;;32.08;34.76;98739.17;371085;107;1962020;-70
2021/07/31 03:11:24;;;;;;;16.69;8.66;;;;;;;32.19;34.80;98745.75;382343;108;1986948;-69
2021/07/31 03:12:31;;;;;;;11.87;8.14;;;;;;;32.04;34.77;98746.67;356734;113;1962056;-69
2021/07/31 03:14:03;;;;;;;13.35;9.20;;;;;;;32.10;34.98;98742.41;370962;99;2463034;-70
2021/07/31 03:15:11;;;;;;;11.03;7.73;;;;;;;31.99;34.87;98744.19;394644;101;1961972;-70
2021/07/31 03:16:18;;;;;;;11.99;8.43;;;;;;;32.02;34.66;98749.05;394741;101;1962005;-71
2021/07/31 03:17:26;;;;;;;11.84;8.27;;;;;;;32.07;34.70;98745.13;395362;101;1962023;-69
2021/07/31 03:18:39;;;;;;;13.47;8.93;;;;;;;32.19;34.80;98745.75;394212;103;1967095;-69
2021/07/31 03:19:46;;;;;;;13.94;8.19;;;;;;;32.02;34.87;98748.22;374157;107;1962054;-69
2021/07/31 03:20:54;;;;;;;14.21;7.93;;;;;;;32.04;34.66;98749.47;375575;106;1961971;-69
2021/07/31 03:22:09;;;;;;;13.10;8.28;;;;;;;32.15;34.66;98747.69;397578;104;1987007;-68
2021/07/31 03:23:22;;;;;;;11.78;8.49;;;;;;;32.06;34.66;98751.91;304575;105;2385056;-69
2021/07/31 03:24:28;;;;;;;12.69;8.23;;;;;;;32.05;34.75;98750.30;378512;107;1963070;-69
2021/07/31 03:25:41;;;;;;;15.33;8.69;;;;;;;32.21;34.69;98748.18;397727;104;1986880;-70
2021/07/31 03:26:47;;;;;;;21.66;8.48;;;;;;;32.17;34.56;98745.30;325438;107;2139978;-70
2021/07/31 03:27:59;;;;;;;13.44;8.67;;;;;;;32.28;34.51;98753.06;391851;104;1986949;-69
2021/07/31 03:29:07;;;;;;;12.36;8.22;;;;;;;32.17;34.49;98758.48;361227;111;1962029;-69
2021/07/31 03:30:31;;;;;;;12.36;8.43;;;;;;;32.15;34.51;98756.08;368620;107;1962976;-67
2021/07/31 03:31:44;;;;;;;12.23;9.05;;;;;;;32.24;34.69;98763.39;329272;103;2334956;-70
2021/07/31 03:32:53;;;;;;;13.39;9.26;;;;;;;32.16;34.50;98757.67;378670;107;1961895;-69
2021/07/31 03:34:05;;;;;;;10.41;7.82;;;;;;;32.23;34.62;98756.17;387865;106;1985881;-69
2021/07/31 03:35:10;;;;;;;12.91;8.34;;;;;;;32.19;34.44;98756.92;365082;109;1962006;-68
2021/07/31 03:36:52;;;;;;;11.48;7.80;;;;;;;32.27;34.33;98757.86;343047;118;1964999;-68
2021/07/31 03:38:07;;;;;;;11.74;8.04;;;;;;;32.39;34.39;98760.47;388702;104;1986486;-68
2021/07/31 03:39:14;;;;;;;11.83;8.76;;;;;;;32.24;34.34;98752.22;362552;109;1963030;-68
2021/07/31 03:40:21;;;;;;;11.02;8.33;;;;;;;32.25;34.46;98751.83;335276;107;2879450;-70
2021/07/31 03:41:33;;;;;;;12.72;8.86;;;;;;;32.46;34.25;98751.37;387036;106;1963669;-70
2021/07/31 03:42:39;;;;;;;13.51;8.88;;;;;;;32.46;34.13;98756.16;366995;108;1968897;-69
2021/07/31 03:43:51;;;;;;;12.17;8.91;;;;;;;32.62;34.12;98754.05;388314;105;1984846;-70
2021/07/31 03:44:57;;;;;;;13.52;9.07;;;;;;;32.56;33.97;98752.77;373425;107;1961034;-70
2021/07/31 03:46:20;;;;;;;14.39;8.82;;;;;;;32.65;33.83;98755.29;369182;109;1960861;-69
2021/07/31 03:47:33;;;;;;;14.75;8.57;;;;;;;32.70;34.18;98752.97;372775;108;2928981;-70
2021/07/31 03:48:39;;;;;;;13.33;8.80;;;;;;;32.66;33.74;98763.31;332838;111;1974733;-71
2021/07/31 03:49:45;;;;;;;13.22;8.46;;;;;;;32.62;33.77;98756.84;358694;111;1962542;-70
2021/07/31 03:50:57;;;;;;;14.26;8.75;;;;;;;32.70;33.87;98760.56;404533;101;1985813;-72
2021/07/31 03:52:06;;;;;;;11.56;8.01;;;;;;;32.65;33.69;98755.29;380072;107;1961995;-70
2021/07/31 03:53:12;;;;;;;13.36;8.65;;;;;;;32.67;33.81;98769.70;378562;105;1960893;-71
2021/07/31 03:54:25;;;;;;;12.85;8.84;;;;;;;32.77;33.87;98755.89;390431;103;2072972;-70
2021/07/31 03:55:31;;;;;;;11.73;8.73;;;;;;;32.69;33.78;98762.56;333592;107;2716933;-70
2021/07/31 03:56:39;;;;;;;13.19;8.21;;;;;;;32.71;33.83;98756.57;372091;109;1962105;-71
2021/07/31 03:57:47;;;;;;;15.16;8.68;;;;;;;32.75;33.78;98758.25;318799;109;2170977;-70
2021/07/31 03:58:59;;;;;;;13.87;9.04;;;;;;;32.93;33.74;98763.30;386099;106;2073048;-70
2021/07/31 04:00:06;;;;;;;13.34;8.64;;;;;;;32.93;33.54;98771.70;375494;107;1962044;-71
2021/07/31 04:01:15;;;;;;;12.31;8.21;;;;;;;33.00;33.49;98764.22;361556;109;1961888;-70
2021/07/31 04:02:28;;;;;;;13.06;8.63;;;;;;;33.16;33.57;98763.23;382205;104;2839995;-70
2021/07/31 04:03:34;;;;;;;16.12;8.81;;;;;;;33.08;33.33;98765.16;364536;107;1964936;-71
2021/07/31 04:04:41;;;;;;;12.13;7.69;;;;;;;33.13;33.16;98764.00;368941;107;1961903;-70
2021/07/31 04:05:46;;;;;;;12.99;8.29;;;;;;;33.13;33.11;98764.83;378560;107;1962013;-71
2021/07/31 04:06:59;;;;;;;12.54;7.95;;;;;;;33.25;33.28;98766.57;398951;104;1985853;-70
2021/07/31 04:08:06;;;;;;;10.24;8.08;;;;;;;33.15;33.10;98764.43;371682;107;1961907;-70
2021/07/31 04:09:19;;;;;;;14.37;8.96;;;;;;;33.28;32.94;98768.61;393130;103;2079862;-70
2021/07/31 04:10:44;;;;;;;13.08;8.87;;;;;;;33.16;32.94;98771.63;373704;105;1962020;-71
2021/07/31 04:12:08;;;;;;;13.88;7.48;;;;;;;33.36;32.67;98772.30;372584;105;1961995;-70
2021/07/31 04:13:21;;;;;;;12.55;8.52;;;;;;;33.49;32.59;98763.27;389560;103;2070948;-71
2021/07/31 04:14:29;;;;;;;14.43;8.77;;;;;;;33.42;32.62;98763.20;377493;107;1968982;-70
2021/07/31 04:15:42;;;;;;;11.85;8.52;;;;;;;33.48;32.50;98767.27;374775;105;1963970;-71
2021/07/31 04:16:49;;;;;;;12.77;8.76;;;;;;;33.50;32.70;98766.87;373127;105;1961944;-72
2021/07/31 04:18:01;;;;;;;14.68;10.13;;;;;;;33.50;32.73;98762.10;394380;104;1987055;-71
2021/07/31 04:19:06;;;;;;;13.06;8.88;;;;;;;33.38;32.83;98769.94;374368;105;1961978;-72
2021/07/31 04:20:18;;;;;;;16.74;10.17;;;;;;;33.56;32.82;98764.59;394830;104;1985919;-71
2021/07/31 04:21:25;;;;;;;19.07;11.05;;;;;;;33.47;32.80;98767.64;338239;109;2875835;-71
2021/07/31 04:22:50;;;;;;;21.39;12.63;;;;;;;33.47;32.80;98768.44;323391;106;2211009;-71
2021/07/31 04:24:02;;;;;;;17.26;11.09;;;;;;;33.61;32.77;98764.22;396021;104;1985996;-71
2021/07/31 04:25:08;;;;;;;16.77;11.15;;;;;;;33.54;32.48;98775.36;377227;107;1961994;-70
2021/07/31 04:26:21;;;;;;;16.25;11.02;;;;;;;33.62;32.53;98772.26;352872;104;2744045;-70
2021/07/31 04:27:29;;;;;;;13.59;9.33;;;;;;;33.45;32.55;98776.44;373411;107;1962055;-70
2021/07/31 04:28:52;;;;;;;14.71;8.78;;;;;;;33.49;32.35;98766.06;339416;109;1979017;-71
2021/07/31 04:30:05;;;;;;;13.46;8.94;;;;;;;33.67;32.01;98771.12;386115;106;1984055;-70
2021/07/31 04:31:13;;;;;;;13.21;8.79;;;;;;;33.53;32.14;98766.13;370620;109;1962951;-69
2021/07/31 04:32:25;;;;;;;11.73;7.70;;;;;;;33.65;31.98;98765.88;395369;103;1986056;-71
2021/07/31 04:33:31;;;;;;;11.50;7.37;;;;;;;33.54;31.84;98762.16;371207;107;1961989;-72
2021/07/31 04:34:54;;;;;;;14.07;8.48;;;;;;;33.61;31.77;98767.86;327778;108;2129025;-70
2021/07/31 04:36:08;;;;;;;13.57;8.38;;;;;;;33.76;31.62;98765.20;394481;104;2080021;-70
2021/07/31 04:37:14;;;;;;;10.92;7.23;;;;;;;33.64;31.46;98766.28;383891;105;1968966;-70
2021/07/31 04:38:19;;;;;;;11.04;6.80;;;;;;;33.70;31.29;98770.34;379425;105;1961975;-68
2021/07/31 04:39:32;;;;;;;10.21;6.57;;;;;;;33.83;31.21;98763.28;399624;104;1986047;-69
2021/07/31 04:40:38;;;;;;;11.28;7.13;;;;;;;33.76;31.15;98766.00;379207;105;1963979;-71
2021/07/31 04:41:50;;;;;;;11.32;7.28;;;;;;;33.86;31.13;98765.31;402217;104;1985956;-71
2021/07/31 04:42:56;;;;;;;10.37;7.01;;;;;;;33.76;31.11;98762.40;376097;105;1961991;-70
2021/07/31 04:44:19;;;;;;;11.11;7.18;;;;;;;33.82;31.05;98766.45;374496;105;1962136;-70
2021/07/31 04:45:32;;;;;;;10.46;7.03;;;;;;;33.87;31.32;98754.91;398299;104;1987013;-70
2021/07/31 04:46:37;;;;;;;13.30;7.40;;;;;;;33.72;31.22;98765.17;377043;105;1963967;-70
2021/07/31 04:47:43;;;;;;;12.88;7.02;;;;;;;33.74;31.24;98760.00;374399;106;1961840;-72
2021/07/31 04:48:55;;;;;;;14.14;8.11;;;;;;;33.92;31.27;98758.16;394441;104;2080979;-70
2021/07/31 04:50:00;;;;;;;11.59;7.06;;;;;;;33.83;31.17;98762.48;376034;105;1962043;-71
2021/07/31 04:51:13;;;;;;;10.98;7.46;;;;;;;33.96;30.84;98760.22;405076;101;1988055;-71
2021/07/31 04:52:18;;;;;;;11.61;7.09;;;;;;;33.88;30.87;98767.75;383921;103;1961940;-72
2021/07/31 04:53:41;;;;;;;12.73;6.68;;;;;;;33.97;30.76;98756.22;374700;106;1965004;-71
2021/07/31 04:54:53;;;;;;;13.18;7.02;;;;;;;34.16;30.57;98756.02;391466;103;2072887;-70
2021/07/31 04:55:59;;;;;;;13.83;6.77;;;;;;;34.09;30.51;98759.58;373993;107;1962020;-71
2021/07/31 04:57:04;;;;;;;11.95;6.99;;;;;;;34.14;30.36;98758.43;374428;106;1962018;-70
2021/07/31 04:58:16;;;;;;;11.19;7.24;;;;;;;34.25;30.46;98761.33;401236;101;1986050;-72
2021/07/31 04:59:22;;;;;;;11.11;7.27;;;;;;;34.19;30.33;98758.08;383471;105;1962081;-72
2021/07/31 05:00:27;;;;;;;11.77;7.12;;;;;;;34.21;30.33;98760.48;386741;104;1963874;-72
2021/07/31 05:01:32;;;;;;;12.64;7.34;;;;;;;34.22;30.38;98760.10;383789;103;1962009;-72
2021/07/31 05:02:45;;;;;;;10.38;7.03;;;;;;;34.37;30.18;98761.02;383007;106;2071049;-71
2021/07/31 05:03:50;;;;;;;11.27;7.12;;;;;;;34.30;30.05;98764.58;367300;107;1961921;-72
2021/07/31 05:05:02;;;;;;;12.28;7.28;;;;;;;34.54;29.83;98762.37;391519;106;1986993;-72
2021/07/31 05:06:08;;;;;;;10.49;6.59;;;;;;;34.39;29.92;98769.05;372005;107;1962037;-70
2021/07/31 05:07:31;;;;;;;9.71;6.12;;;;;;;34.40;29.97;98765.04;364667;107;1962020;-71
2021/07/31 05:08:37;;;;;;;10.82;6.45;;;;;;;34.40;29.49;98765.84;366749;109;1961941;-72
2021/07/31 05:09:49;;;;;;;10.46;6.17;;;;;;;34.47;29.40;98763.10;394737;103;1985917;-71
2021/07/31 05:10:54;;;;;;;10.29;5.79;;;;;;;34.42;29.11;98766.27;373636;105;1962065;-71
2021/07/31 05:12:00;;;;;;;11.44;6.38;;;;;;;34.40;29.34;98779.06;374795;107;1961882;-70
2021/07/31 05:13:08;;;;;;;10.02;6.41;;;;;;;34.44;29.36;98769.49;337412;106;2622916;-71
2021/07/31 05:14:21;;;;;;;9.48;5.92;;;;;;;34.57;29.44;98782.05;379011;108;1986007;-71
2021/07/31 05:15:26;;;;;;;10.23;6.28;;;;;;;34.53;29.35;98769.15;358240;112;1962962;-72
2021/07/31 05:16:31;;;;;;;11.35;6.63;;;;;;;34.58;29.38;98786.45;353838;113;1962020;-73
2021/07/31 05:17:45;;;;;;;10.82;6.39;;;;;;;34.60;29.31;98780.47;319460;106;2473880;-72
2021/07/31 05:19:03;;;;;;;11.26;7.14;;;;;;;34.51;29.20;98791.19;328915;111;2063049;-72
2021/07/31 05:20:51;;;;;;;12.61;6.16;;;;;;;34.68;29.47;98782.13;355605;106;2540991;-71
2021/07/31 05:22:49;;;;;;;10.31;6.95;;;;;;;34.58;29.24;98785.65;371155;107;1961964;-72
2021/07/31 05:24:35;;;;;;;11.65;6.49;;;;;;;34.74;29.54;98783.36;343318;104;2883959;-73
2021/07/31 05:26:02;;;;;;;10.49;6.25;;;;;;;34.73;29.22;98786.58;369722;108;1962078;-71